Time;durP1;ratioP1;P1;durP2;ratioP2;P2;SDS_P1;SDS_P2;PMS_P1;PMS_P2;Temp;Humidity;BMP_temperature;BMP_pressure;BME280_temperature;BME280_humidity;BME280_pressure;Samples;Min_cycle;Max_cycle;Signal;HPM_P1;HPM_P2
2023/06/17 00:00:08;;;;;;;14.68;10.30;;;;;;;22.39;56.72;100991.09;5026715;28;20044;-83
2023/06/17 00:02:35;;;;;;;18.73;10.57;;;;;;;22.94;56.24;101064.88;5006674;28;20056;-82
2023/06/17 00:05:03;;;;;;;10.57;9.45;;;;;;;22.58;57.21;101024.66;4997666;28;20488;-82
2023/06/17 00:07:30;;;;;;;12.55;9.50;;;;;;;22.51;56.14;100977.81;5012185;28;20045;-84
2023/06/17 00:09:57;;;;;;;14.50;10.27;;;;;;;22.49;56.64;101006.94;5010097;28;20148;-83
2023/06/17 00:12:24;;;;;;;11.30;9.88;;;;;;;22.60;56.69;101006.34;5024830;28;20060;-83
2023/06/17 00:14:53;;;;;;;12.65;9.75;;;;;;;21.98;56.47;100891.97;5008261;28;20581;-85
2023/06/17 00:17:23;;;;;;;10.68;9.52;;;;;;;21.91;55.86;100870.31;4999854;28;20057;-84
2023/06/17 00:19:56;;;;;;;12.15;9.27;;;;;;;22.07;56.13;100896.16;4994244;28;20051;-84
2023/06/17 00:22:36;;;;;;;12.30;8.55;;;;;;;22.67;56.04;100990.94;4991400;28;20072;-84
2023/06/17 00:25:03;;;;;;;10.50;8.23;;;;;;;22.57;56.17;100982.38;4990038;28;20282;-85
2023/06/17 00:27:35;;;;;;;12.90;8.35;;;;;;;21.61;55.79;100814.97;4976974;28;20055;-84
2023/06/17 00:30:13;;;;;;;10.18;7.72;;;;;;;22.53;55.38;100964.91;4985802;28;20048;-83
2023/06/17 00:32:42;;;;;;;12.40;8.32;;;;;;;22.52;55.35;100968.63;5003730;28;20370;-82
2023/06/17 00:35:09;;;;;;;10.00;7.97;;;;;;;22.32;55.18;100936.97;5007477;28;20049;-83
2023/06/17 00:37:36;;;;;;;10.48;7.97;;;;;;;22.29;54.19;100918.47;5003739;28;20182;-84
2023/06/17 00:40:08;;;;;;;14.23;8.48;;;;;;;22.45;54.89;100968.63;4994086;28;20084;-83
2023/06/17 00:42:43;;;;;;;10.90;8.25;;;;;;;22.19;55.31;100926.13;4995183;28;20715;-85
2023/06/17 00:45:12;;;;;;;13.45;7.80;;;;;;;22.45;54.43;100936.16;4982606;28;20056;-84
2023/06/17 00:47:40;;;;;;;10.45;7.28;;;;;;;22.55;53.65;100943.88;4969203;28;20049;-83
2023/06/17 00:50:15;;;;;;;12.10;8.27;;;;;;;22.50;53.93;100946.38;4982282;28;20312;-83
2023/06/17 00:52:45;;;;;;;15.35;6.95;;;;;;;22.51;53.65;100924.53;4961041;28;20045;-83
2023/06/17 00:55:12;;;;;;;10.82;8.02;;;;;;;22.50;54.13;100949.06;4996783;28;20076;-84
2023/06/17 00:57:39;;;;;;;10.35;7.25;;;;;;;22.37;54.05;100945.31;4991799;28;20052;-82
2023/06/17 01:00:12;;;;;;;9.93;7.55;;;;;;;22.44;54.05;100968.84;4984080;28;20165;-82
2023/06/17 01:02:44;;;;;;;9.15;7.97;;;;;;;21.98;54.86;100898.19;4977192;28;20053;-85
2023/06/17 01:05:16;;;;;;;14.25;9.07;;;;;;;22.38;56.76;100984.88;4973046;28;20661;-84
2023/06/17 01:07:45;;;;;;;;;;;;;;;22.34;56.90;100980.88;4933188;28;20324;-84
2023/06/17 01:10:34;;;;;;;10.35;8.35;;;;;;;22.34;56.13;100971.94;4964171;28;19925;-83
2023/06/17 01:13:03;;;;;;;10.70;8.32;;;;;;;22.33;55.71;100973.81;4983806;28;20079;-82
2023/06/17 01:15:36;;;;;;;14.80;8.55;;;;;;;21.66;55.40;100866.53;4985555;28;20305;-82
2023/06/17 01:18:07;;;;;;;11.52;8.90;;;;;;;21.48;55.69;100838.22;4998028;28;20049;-83
2023/06/17 01:20:35;;;;;;;12.75;7.78;;;;;;;22.05;54.68;100911.75;4986649;28;20053;-84
2023/06/17 01:23:07;;;;;;;14.00;9.07;;;;;;;22.23;54.50;100935.50;4988075;28;20741;-83
2023/06/17 01:25:37;;;;;;;10.43;8.52;;;;;;;21.50;55.38;100841.53;5004972;28;20067;-84
2023/06/17 01:28:17;;;;;;;11.82;8.98;;;;;;;22.19;55.64;100963.97;4997545;28;20405;-84
2023/06/17 01:30:47;;;;;;;11.73;9.30;;;;;;;21.98;55.22;100936.03;5009936;28;20053;-85
2023/06/17 01:33:14;;;;;;;17.67;8.57;;;;;;;22.26;55.18;100975.69;4999434;28;20457;-84
2023/06/17 01:36:14;;;;;;;12.32;8.60;;;;;;;21.78;55.16;100918.94;4989733;28;20049;-83
2023/06/17 01:38:53;;;;;;;12.25;8.27;;;;;;;22.17;54.99;101004.72;4991824;28;20183;-83
2023/06/17 01:41:36;;;;;;;19.77;8.75;;;;;;;21.94;55.91;100956.44;4999306;28;20087;-83
2023/06/17 01:44:07;;;;;;;10.85;8.23;;;;;;;21.76;54.72;100921.00;4995433;28;20247;-85
2023/06/17 01:46:36;;;;;;;9.75;7.75;;;;;;;21.68;54.92;100913.91;5005596;28;20153;-89
2023/06/17 01:49:03;;;;;;;11.52;8.82;;;;;;;22.12;54.94;100984.75;5010007;28;20048;-85
2023/06/17 01:51:38;;;;;;;11.07;7.82;;;;;;;22.29;53.45;100972.56;4992560;28;20765;-84
2023/06/17 01:54:08;;;;;;;13.18;8.48;;;;;;;21.90;54.35;100936.22;4980146;28;20155;-84
2023/06/17 01:56:37;;;;;;;9.27;8.23;;;;;;;21.89;53.97;100931.84;4955225;28;20060;-82
2023/06/17 01:59:04;;;;;;;18.23;9.25;;;;;;;21.91;55.12;100959.50;4977480;28;20426;-83
2023/06/17 02:01:37;;;;;;;11.23;8.18;;;;;;;21.98;54.88;100973.88;4986998;28;20064;-84
2023/06/17 02:04:04;;;;;;;13.68;8.85;;;;;;;21.66;54.92;100910.59;5011772;28;20291;-85
2023/06/17 02:06:37;;;;;;;13.20;8.77;;;;;;;22.05;54.38;100965.81;5018328;28;20427;-84
2023/06/17 02:09:04;;;;;;;14.43;8.07;;;;;;;21.91;53.84;100939.75;5028170;28;20326;-85
2023/06/17 02:11:30;;;;;;;12.63;8.18;;;;;;;21.91;54.02;100950.56;5009522;28;20049;-84
2023/06/17 02:13:57;;;;;;;16.38;8.43;;;;;;;21.69;53.65;100904.75;5005675;28;20128;-84
2023/06/17 02:16:24;;;;;;;11.65;8.18;;;;;;;21.93;53.94;100959.31;4997560;28;20054;-85
2023/06/17 02:18:53;;;;;;;11.10;7.80;;;;;;;21.93;53.99;100960.16;5002483;28;20085;-79
2023/06/17 02:21:24;;;;;;;11.35;7.72;;;;;;;21.97;54.32;100980.34;5003687;28;20060;-85
2023/06/17 02:23:54;;;;;;;13.38;8.35;;;;;;;21.25;54.67;100879.00;5012393;28;20625;-82
2023/06/17 02:26:26;;;;;;;9.70;8.20;;;;;;;21.48;54.27;100908.44;5000015;28;20135;-80
2023/06/17 02:28:53;;;;;;;13.60;8.63;;;;;;;21.64;54.75;100941.53;4998013;28;20290;-84
2023/06/17 02:31:22;;;;;;;12.00;7.75;;;;;;;21.36;54.94;100904.63;4993849;28;20046;-85
2023/06/17 02:33:58;;;;;;;13.23;8.25;;;;;;;21.18;54.94;100869.19;4991165;28;20436;-84
2023/06/17 02:36:27;;;;;;;13.82;8.50;;;;;;;21.74;55.08;100969.00;4999294;28;20610;-85
2023/06/17 02:38:53;;;;;;;10.73;7.82;;;;;;;21.63;55.76;100964.19;5004803;28;20130;-83
2023/06/17 02:41:23;;;;;;;12.75;8.18;;;;;;;20.14;55.65;100730.53;4987198;28;20233;-85
2023/06/17 02:43:50;;;;;;;15.57;8.75;;;;;;;20.26;56.98;100758.59;4995367;28;20311;-84
2023/06/17 02:46:17;;;;;;;10.98;7.72;;;;;;;21.17;57.05;100892.66;5000008;28;20049;-84
2023/06/17 02:48:43;;;;;;;12.60;7.65;;;;;;;20.50;57.17;100794.25;4994085;28;20395;-85
2023/06/17 02:51:10;;;;;;;11.25;8.65;;;;;;;21.09;56.57;100904.47;4998609;28;20071;-84
2023/06/17 02:53:37;;;;;;;11.48;8.25;;;;;;;20.97;56.56;100887.16;5004356;28;20589;-82
2023/06/17 02:56:04;;;;;;;9.18;7.63;;;;;;;20.27;56.42;100781.84;4988111;28;20544;-84
2023/06/17 02:58:37;;;;;;;12.55;8.02;;;;;;;20.53;56.51;100828.91;5002243;28;20282;-84
2023/06/17 03:01:05;;;;;;;14.68;8.10;;;;;;;20.79;55.06;100867.94;4982450;28;20049;-84
2023/06/17 03:03:36;;;;;;;14.02;7.97;;;;;;;21.69;56.09;101002.03;4995388;28;20122;-84
2023/06/17 03:06:05;;;;;;;17.13;9.77;;;;;;;21.21;56.47;100922.78;5020616;28;20143;-85
2023/06/17 03:08:40;;;;;;;14.32;9.52;;;;;;;20.96;57.74;100907.06;4995317;28;20115;-85
2023/06/17 03:11:07;;;;;;;15.57;9.43;;;;;;;21.15;57.64;100945.19;5003056;28;20052;-84
2023/06/17 03:13:34;;;;;;;20.88;9.88;;;;;;;20.26;58.77;100825.16;4957625;28;20132;-83
2023/06/17 03:16:07;;;;;;;13.25;9.82;;;;;;;21.01;59.35;100961.28;4973854;28;20275;-84
2023/06/17 03:18:34;;;;;;;17.08;10.52;;;;;;;21.11;60.57;100996.84;4996097;28;20489;-85
2023/06/17 03:21:02;;;;;;;19.08;10.32;;;;;;;20.70;60.73;100940.91;4985718;28;20053;-83
2023/06/17 03:23:29;;;;;;;21.45;10.77;;;;;;;19.95;60.55;100817.41;4984393;28;20436;-85
2023/06/17 03:25:57;;;;;;;24.70;11.57;;;;;;;20.68;60.37;100928.63;4985862;28;20055;-85
2023/06/17 03:28:24;;;;;;;17.20;10.50;;;;;;;21.11;60.70;101015.75;4977251;28;20145;-83
2023/06/17 03:30:52;;;;;;;19.05;10.73;;;;;;;21.04;61.20;101020.25;4977238;28;20467;-84
2023/06/17 03:33:20;;;;;;;17.00;11.48;;;;;;;20.21;62.34;100909.31;4982164;28;20049;-83
2023/06/17 03:35:47;;;;;;;19.10;11.13;;;;;;;20.74;62.06;101019.59;4993024;28;20494;-82
2023/06/17 03:38:19;;;;;;;14.82;10.90;;;;;;;20.29;63.06;100951.47;5004275;28;20239;-84
2023/06/17 03:40:48;;;;;;;20.70;11.35;;;;;;;20.54;63.18;101018.53;4986635;28;20273;-83
2023/06/17 03:43:23;;;;;;;19.02;10.80;;;;;;;20.50;63.55;101009.97;5009285;28;20208;-85
2023/06/17 03:45:54;;;;;;;19.75;11.43;;;;;;;20.35;63.37;100990.34;5004261;28;20460;-83
2023/06/17 03:48:21;;;;;;;20.80;11.13;;;;;;;20.51;63.45;101025.16;4977202;28;20222;-84
2023/06/17 03:50:50;;;;;;;14.40;10.30;;;;;;;20.66;63.27;101025.94;4997194;28;20085;-85
2023/06/17 03:53:22;;;;;;;18.30;11.20;;;;;;;20.67;63.17;101032.19;5006601;28;20471;-84
2023/06/17 03:55:52;;;;;;;14.63;11.50;;;;;;;20.64;63.35;101014.50;5000889;28;20060;-83
2023/06/17 03:58:20;;;;;;;22.73;11.20;;;;;;;20.27;63.64;100956.25;5000577;28;20051;-84
2023/06/17 04:00:53;;;;;;;18.77;11.60;;;;;;;19.74;64.13;100882.91;5007779;28;20144;-84
2023/06/17 04:03:25;;;;;;;17.35;10.48;;;;;;;20.67;63.97;101041.09;5004880;28;20744;-85
2023/06/17 04:05:54;;;;;;;;;;;;;;;20.60;64.60;101034.78;5001752;28;20057;-85
2023/06/17 04:08:23;;;;;;;17.10;12.25;;;;;;;20.45;63.54;100993.53;5008042;28;20388;-84
2023/06/17 04:10:51;;;;;;;22.58;12.07;;;;;;;19.82;63.96;100907.84;4999793;28;20144;-82
2023/06/17 04:13:21;;;;;;;18.17;12.05;;;;;;;20.69;63.91;101028.25;4998955;28;20451;-84
2023/06/17 04:15:48;;;;;;;25.05;11.63;;;;;;;20.77;63.86;101048.03;5002918;28;20135;-84
2023/06/17 04:18:19;;;;;;;21.65;12.07;;;;;;;20.66;63.60;101025.13;5008192;28;20056;-84
2023/06/17 04:20:46;;;;;;;22.17;12.32;;;;;;;20.20;64.08;100964.25;5009902;28;20064;-85
2023/06/17 04:23:13;;;;;;;16.60;12.15;;;;;;;20.47;64.25;101003.09;5008330;28;20300;-83
2023/06/17 04:25:43;;;;;;;20.20;12.18;;;;;;;20.18;63.77;100950.13;5027170;28;20445;-85
2023/06/17 04:28:12;;;;;;;21.65;12.18;;;;;;;20.16;63.81;100962.97;5008572;28;20137;-80
2023/06/17 04:30:45;;;;;;;23.55;11.52;;;;;;;19.43;64.74;100838.19;5009529;28;20041;-83
2023/06/17 04:33:14;;;;;;;21.05;12.73;;;;;;;19.91;63.93;100905.91;5004646;28;20080;-85
2023/06/17 04:35:42;;;;;;;16.98;11.20;;;;;;;20.55;63.68;101012.97;5008207;28;20481;-85
2023/06/17 04:38:10;;;;;;;18.20;11.77;;;;;;;20.54;63.63;101003.19;4999831;28;20056;-83
2023/06/17 04:40:37;;;;;;;23.95;11.93;;;;;;;19.49;63.40;100833.88;5011628;28;20052;-83
2023/06/17 04:43:04;;;;;;;22.10;11.68;;;;;;;20.35;63.42;100960.69;5005817;28;20063;-82
2023/06/17 04:45:35;;;;;;;18.08;11.48;;;;;;;20.63;64.24;101018.25;5010265;28;20053;-83
2023/06/17 04:48:08;;;;;;;24.05;11.93;;;;;;;20.65;64.32;101018.88;5014120;28;20056;-85
2023/06/17 04:50:35;;;;;;;14.38;11.55;;;;;;;20.47;64.26;100967.22;5006622;28;20343;-84
2023/06/17 04:53:04;;;;;;;18.35;11.70;;;;;;;20.99;63.58;101032.66;5008737;28;20557;-84
2023/06/17 04:55:35;;;;;;;18.08;11.90;;;;;;;20.63;64.00;100964.31;5013557;28;20922;-84
2023/06/17 04:58:07;;;;;;;21.65;12.95;;;;;;;20.92;63.86;101005.63;4998270;28;20156;-84
2023/06/17 05:00:34;;;;;;;17.45;12.35;;;;;;;20.69;63.96;100968.91;4993629;28;20504;-84
2023/06/17 05:03:06;;;;;;;20.05;12.77;;;;;;;20.48;63.40;100914.94;5009162;28;20069;-85
2023/06/17 05:05:36;;;;;;;23.48;13.32;;;;;;;19.90;63.59;100815.28;5005310;28;20052;-85
2023/06/17 05:08:02;;;;;;;15.95;11.75;;;;;;;20.45;63.23;100896.47;5027934;28;20413;-85
2023/06/17 05:10:34;;;;;;;18.50;13.90;;;;;;;21.01;63.37;100977.47;5035752;28;20166;-81
2023/06/17 05:13:02;;;;;;;21.85;12.10;;;;;;;20.18;62.71;100845.00;5002477;28;20065;-84
2023/06/17 05:15:29;;;;;;;20.05;11.77;;;;;;;20.83;62.27;100944.75;4989627;28;20049;-84
2023/06/17 05:17:56;;;;;;;17.65;10.45;;;;;;;20.53;61.42;100888.22;4987548;28;20339;-83
2023/06/17 05:20:23;;;;;;;11.05;8.98;;;;;;;21.01;59.79;100950.47;5009109;28;20080;-83
2023/06/17 05:22:55;;;;;;;11.48;8.82;;;;;;;21.75;59.55;101065.28;5030259;28;20063;-81
2023/06/17 05:25:22;;;;;;;13.65;9.40;;;;;;;21.85;59.73;101063.03;5012988;28;20041;-83
2023/06/17 05:27:51;;;;;;;17.33;9.43;;;;;;;21.76;60.06;101050.72;5007846;28;20700;-84
2023/06/17 05:30:21;;;;;;;11.68;9.00;;;;;;;21.98;58.73;101071.19;5006520;28;20080;-82
2023/06/17 05:32:49;;;;;;;13.10;9.52;;;;;;;22.00;57.71;101046.69;5024862;28;20041;-83
2023/06/17 05:35:16;;;;;;;12.52;8.38;;;;;;;22.08;57.56;101064.59;5029637;28;20052;-84
2023/06/17 05:37:43;;;;;;;13.48;8.18;;;;;;;22.17;56.89;101074.22;5031957;28;20059;-83
2023/06/17 05:40:10;;;;;;;14.90;8.45;;;;;;;21.78;56.77;101000.00;5007896;28;20056;-84
2023/06/17 05:42:37;;;;;;;12.73;7.82;;;;;;;22.10;56.26;101040.91;5017017;28;20428;-84
2023/06/17 05:45:04;;;;;;;13.45;8.52;;;;;;;22.22;56.32;101055.53;5004887;28;20335;-83
2023/06/17 05:47:31;;;;;;;12.52;8.05;;;;;;;21.81;55.56;100966.34;5002928;28;20421;-83
2023/06/17 05:49:58;;;;;;;11.55;7.80;;;;;;;22.28;55.09;101022.28;4989941;28;20098;-84
2023/06/17 05:52:25;;;;;;;13.95;7.50;;;;;;;21.35;55.35;100881.31;5014444;28;20041;-84
2023/06/17 05:54:53;;;;;;;11.70;8.00;;;;;;;22.52;55.45;101074.97;4975558;28;20041;-83
2023/06/17 05:57:22;;;;;;;13.60;8.73;;;;;;;22.60;55.45;101068.56;5006295;28;20825;-83
2023/06/17 05:59:49;;;;;;;11.48;8.20;;;;;;;22.50;54.72;101027.53;5015371;28;20431;-84
2023/06/17 06:02:18;;;;;;;12.57;8.73;;;;;;;22.54;54.75;101036.91;4993654;28;20314;-84
2023/06/17 06:04:47;;;;;;;10.20;8.48;;;;;;;22.71;54.74;101076.06;4995658;28;20630;-83
2023/06/17 06:07:13;;;;;;;12.77;8.63;;;;;;;22.04;55.05;100960.59;5002515;28;20470;-84
2023/06/17 06:09:42;;;;;;;12.65;8.88;;;;;;;22.47;54.47;101020.66;5004667;28;20132;-84
2023/06/17 06:12:10;;;;;;;10.38;8.15;;;;;;;22.72;53.43;101036.31;5011282;28;20520;-83
2023/06/17 06:14:41;;;;;;;13.13;8.05;;;;;;;22.78;53.14;101047.16;4991346;28;20281;-83
2023/06/17 06:17:07;;;;;;;14.15;7.95;;;;;;;23.09;53.20;101088.25;5005971;28;20403;-83
2023/06/17 06:19:34;;;;;;;9.60;8.20;;;;;;;21.97;52.79;100890.31;5001514;28;20057;-83
2023/06/17 06:22:02;;;;;;;9.98;7.63;;;;;;;22.44;52.67;100955.31;5007754;28;20056;-84
2023/06/17 06:24:29;;;;;;;9.20;8.25;;;;;;;22.51;53.01;100966.97;4988293;28;20128;-85
2023/06/17 06:27:01;;;;;;;11.27;8.57;;;;;;;23.28;52.75;101094.69;4994666;28;20059;-82
2023/06/17 06:29:33;;;;;;;13.00;8.82;;;;;;;22.92;52.21;101034.47;5005672;28;20056;-84
2023/06/17 06:32:00;;;;;;;14.18;8.30;;;;;;;23.24;52.35;101081.56;5003207;28;20037;-85
2023/06/17 06:34:30;;;;;;;14.15;8.50;;;;;;;22.48;51.50;100924.94;5018267;28;20435;-85
2023/06/17 06:36:58;;;;;;;12.20;8.90;;;;;;;23.06;52.24;101027.22;5002552;28;20317;-85
2023/06/17 06:39:26;;;;;;;14.18;8.90;;;;;;;23.09;52.79;101034.91;5006785;28;20056;-86
2023/06/17 06:41:53;;;;;;;14.63;8.88;;;;;;;23.10;52.28;101025.75;5003314;28;20087;-86
2023/06/17 06:44:23;;;;;;;15.48;9.35;;;;;;;22.73;52.64;100959.50;5016536;28;20342;-83
2023/06/17 06:46:53;;;;;;;12.23;10.05;;;;;;;22.47;52.43;100893.50;5004629;28;20090;-85
2023/06/17 06:49:22;;;;;;;13.60;8.80;;;;;;;22.55;52.59;100908.69;5005037;28;20292;-85
2023/06/17 06:51:49;;;;;;;12.18;9.40;;;;;;;23.14;52.50;100982.84;5001712;28;20059;-84
2023/06/17 06:54:18;;;;;;;14.18;9.10;;;;;;;23.41;52.22;101018.84;5003863;28;20275;-84
2023/06/17 06:56:46;;;;;;;12.60;10.07;;;;;;;23.36;51.59;101002.41;4996477;28;20048;-85
2023/06/17 06:59:13;;;;;;;11.30;10.10;;;;;;;23.65;51.17;101053.41;4996869;28;20049;-85
2023/06/17 07:01:42;;;;;;;16.67;10.25;;;;;;;23.56;51.64;101024.84;5000457;28;20059;-84
2023/06/17 07:04:11;;;;;;;12.80;10.15;;;;;;;23.86;52.25;101084.88;5000456;28;20049;-84
2023/06/17 07:06:44;;;;;;;14.23;10.15;;;;;;;24.03;52.63;101095.22;5006388;28;20055;-85
2023/06/17 07:09:11;;;;;;;17.98;10.57;;;;;;;23.61;52.65;101027.75;4994462;28;20052;-85
2023/06/17 07:11:43;;;;;;;16.85;10.85;;;;;;;24.02;53.25;101099.84;5001362;28;20762;-85
2023/06/17 07:14:15;;;;;;;17.00;10.70;;;;;;;24.02;53.25;101096.28;4983946;28;20049;-84
2023/06/17 07:16:47;;;;;;;13.85;10.55;;;;;;;24.10;52.84;101093.34;5006043;28;20055;-85
2023/06/17 07:19:20;;;;;;;13.65;10.88;;;;;;;24.21;52.54;101097.28;5013746;28;20044;-84
2023/06/17 07:21:48;;;;;;;16.42;11.98;;;;;;;24.21;52.71;101113.56;4990481;28;20061;-84
2023/06/17 07:24:21;;;;;;;20.98;11.80;;;;;;;24.31;52.63;101108.50;4992606;28;20079;-85
2023/06/17 07:26:48;;;;;;;16.65;10.43;;;;;;;24.32;53.80;101110.16;5020253;28;20041;-84
2023/06/17 07:29:21;;;;;;;14.73;11.13;;;;;;;24.34;53.08;101091.78;5028632;28;20055;-85
2023/06/17 07:31:50;;;;;;;15.38;12.18;;;;;;;24.06;53.68;101046.84;5011638;28;20487;-83
2023/06/17 07:34:22;;;;;;;15.60;13.32;;;;;;;23.36;51.52;100916.53;5006815;28;20056;-82
2023/06/17 07:36:52;;;;;;;21.40;12.98;;;;;;;23.57;52.04;100945.25;5027391;28;20052;-84
2023/06/17 07:39:20;;;;;;;14.70;13.10;;;;;;;23.29;52.09;100899.47;5004096;28;20091;-84
2023/06/17 07:41:47;;;;;;;18.88;14.13;;;;;;;24.24;51.92;101061.56;5000827;28;20215;-83
2023/06/17 07:44:14;;;;;;;21.48;14.13;;;;;;;24.08;52.00;101033.91;4988931;28;20338;-84
2023/06/17 07:46:41;;;;;;;20.27;13.52;;;;;;;24.59;51.29;101099.19;4977823;28;20345;-83
2023/06/17 07:49:08;;;;;;;17.92;14.80;;;;;;;24.21;51.70;101029.47;5019062;28;20558;-82
2023/06/17 07:51:36;;;;;;;15.27;12.65;;;;;;;24.19;52.14;101037.81;5003046;28;20052;-85
2023/06/17 07:54:06;;;;;;;15.05;12.32;;;;;;;23.96;53.03;100996.81;5014958;28;20402;-84
2023/06/17 07:56:33;;;;;;;15.15;13.40;;;;;;;24.75;52.37;101098.69;5028487;28;20065;-83
2023/06/17 07:59:00;;;;;;;15.02;12.27;;;;;;;24.51;52.79;101076.69;4997618;28;20303;-85
2023/06/17 08:01:30;;;;;;;19.80;12.63;;;;;;;23.59;53.33;100915.19;5007156;28;20049;-84
2023/06/17 08:03:56;;;;;;;16.73;13.15;;;;;;;24.39;52.81;101023.31;5008202;28;20293;-84
2023/06/17 08:06:24;;;;;;;17.33;14.10;;;;;;;24.81;53.03;101065.25;4994574;28;20433;-84
2023/06/17 08:08:53;;;;;;;21.00;13.25;;;;;;;24.79;52.91;101053.78;4987394;28;20045;-85
2023/06/17 08:11:22;;;;;;;17.08;14.20;;;;;;;24.50;52.91;101015.34;4998903;28;20076;-85
2023/06/17 08:13:49;;;;;;;19.38;14.60;;;;;;;24.74;52.29;101042.75;4994121;28;20049;-81
2023/06/17 08:16:16;;;;;;;19.65;14.65;;;;;;;25.27;51.14;101099.41;5003581;28;20041;-83
2023/06/17 08:18:43;;;;;;;18.80;15.52;;;;;;;25.06;51.74;101072.59;4996719;28;20063;-81
2023/06/17 08:21:10;;;;;;;18.25;16.23;;;;;;;25.13;51.25;101085.06;4993116;28;20231;-83
2023/06/17 08:23:36;;;;;;;16.95;14.93;;;;;;;25.07;51.70;101076.97;5023317;28;20431;-81
2023/06/17 08:26:04;;;;;;;16.63;14.32;;;;;;;25.29;51.34;101105.47;5001709;28;20221;-81
2023/06/17 08:28:34;;;;;;;19.70;16.20;;;;;;;24.74;50.86;101004.75;5008834;28;20048;-82
2023/06/17 08:31:01;;;;;;;19.33;15.50;;;;;;;25.42;50.50;101081.94;4998216;28;20278;-82
2023/06/17 08:33:29;;;;;;;20.23;16.65;;;;;;;25.44;49.48;101068.94;4999034;28;20091;-83
2023/06/17 08:35:56;;;;;;;21.85;17.85;;;;;;;25.40;49.12;101063.13;5002511;28;20053;-83
2023/06/17 08:38:23;;;;;;;25.38;16.63;;;;;;;25.67;49.00;101093.59;4996210;28;20049;-85
2023/06/17 08:40:50;;;;;;;26.50;16.20;;;;;;;25.08;50.24;101005.31;5004758;28;20139;-83
2023/06/17 08:43:20;;;;;;;25.23;17.23;;;;;;;25.47;49.03;101063.91;5009665;28;20449;-83
2023/06/17 08:45:50;;;;;;;21.30;16.65;;;;;;;25.76;49.82;101097.69;5002595;28;20053;-82
2023/06/17 08:48:18;;;;;;;24.92;18.20;;;;;;;25.79;49.49;101089.09;5006781;28;20250;-84
2023/06/17 08:50:49;;;;;;;21.95;16.38;;;;;;;25.61;49.12;101059.19;5008068;28;20334;-83
2023/06/17 08:53:16;;;;;;;;;;;;;;;25.86;48.96;101093.66;5007675;28;20192;-84
2023/06/17 08:55:43;;;;;;;20.88;15.65;;;;;;;25.66;48.72;101045.72;5010506;28;20352;-82
2023/06/17 08:58:10;;;;;;;19.23;16.38;;;;;;;25.88;47.99;101070.63;5029205;28;20053;-82
2023/06/17 09:00:37;;;;;;;19.35;15.32;;;;;;;26.15;46.83;101087.47;5016727;28;20658;-82
2023/06/17 09:03:10;;;;;;;19.60;15.48;;;;;;;25.96;46.72;101047.72;5009693;28;20088;-83
2023/06/17 09:05:37;;;;;;;18.23;15.18;;;;;;;25.87;45.45;100981.91;4995680;28;20045;-85
2023/06/17 09:08:05;;;;;;;23.23;15.80;;;;;;;26.26;45.81;101046.94;5009896;28;20049;-82
2023/06/17 09:10:44;;;;;;;20.13;16.27;;;;;;;25.59;45.91;100966.13;4990582;28;20053;-83
2023/06/17 09:13:14;;;;;;;20.00;15.48;;;;;;;26.39;46.06;101060.38;5021977;28;20053;-84
2023/06/17 09:15:44;;;;;;;19.42;15.00;;;;;;;25.43;45.85;100909.66;5007128;28;20132;-83
2023/06/17 09:18:16;;;;;;;17.98;14.40;;;;;;;26.43;45.98;101050.66;5022114;28;20059;-84
2023/06/17 09:20:51;;;;;;;17.73;15.05;;;;;;;26.46;45.66;101052.94;4997012;28;20497;-84
2023/06/17 09:23:18;;;;;;;18.80;14.85;;;;;;;26.55;45.26;101039.84;5004460;28;20076;-84
2023/06/17 09:25:46;;;;;;;22.35;15.95;;;;;;;26.41;46.09;101017.44;5001023;28;20606;-82
2023/06/17 09:28:16;;;;;;;19.30;15.88;;;;;;;26.70;45.89;101056.63;4996599;28;20045;-83
2023/06/17 09:30:53;;;;;;;18.33;15.80;;;;;;;25.89;46.52;100903.66;4996936;28;20048;-84
2023/06/17 09:33:21;;;;;;;20.15;14.52;;;;;;;26.37;45.92;100965.31;5004215;28;20056;-84
2023/06/17 09:36:08;;;;;;;;;;;;;;;26.92;45.96;101016.03;4999306;28;20057;-84
2023/06/17 09:38:39;;;;;;;28.13;15.82;;;;;;;27.12;44.77;101025.78;4990268;28;20304;-85
2023/06/17 09:41:12;;;;;;;19.67;15.90;;;;;;;27.28;44.62;101055.06;5011961;28;20489;-84
2023/06/17 09:43:41;;;;;;;19.33;15.40;;;;;;;27.33;44.77;101049.72;5001941;28;20037;-84
2023/06/17 09:46:10;;;;;;;19.65;15.55;;;;;;;26.72;45.20;100948.25;4996799;28;20056;-83
2023/06/17 09:48:40;;;;;;;21.65;15.88;;;;;;;26.82;44.65;100944.94;4989093;28;20084;-84
2023/06/17 09:51:09;;;;;;;21.42;14.65;;;;;;;27.26;43.97;100978.16;5008516;28;20048;-84
2023/06/17 09:53:37;;;;;;;23.30;14.52;;;;;;;27.79;43.23;101030.81;4996606;28;20476;-83
2023/06/17 09:56:10;;;;;;;18.38;14.52;;;;;;;27.77;43.05;100990.16;5007040;28;20072;-84
2023/06/17 09:58:44;;;;;;;24.73;14.00;;;;;;;27.21;42.66;100878.03;4996907;28;20081;-84
2023/06/17 10:01:12;;;;;;;19.90;14.65;;;;;;;28.19;42.35;101030.88;5007149;28;20052;-85
2023/06/17 10:03:43;;;;;;;20.90;14.25;;;;;;;28.09;41.63;100989.75;4984484;28;20251;-85
2023/06/17 10:06:16;;;;;;;16.15;13.07;;;;;;;28.31;41.62;101030.81;4982690;28;20407;-85
2023/06/17 10:08:49;;;;;;;19.23;14.18;;;;;;;27.30;41.40;100873.03;4986804;28;20508;-83
2023/06/17 10:11:19;;;;;;;19.42;12.55;;;;;;;27.81;41.82;100928.59;5021174;28;20056;-84
2023/06/17 10:14:00;;;;;;;17.73;14.05;;;;;;;28.54;39.79;101000.69;5001354;28;20556;-86
2023/06/17 10:16:38;;;;;;;15.93;13.23;;;;;;;28.67;40.33;100998.75;5009043;28;20544;-84
2023/06/17 10:19:15;;;;;;;17.58;14.80;;;;;;;28.99;39.96;101026.31;4968027;28;20049;-86
2023/06/17 10:21:46;;;;;;;18.05;15.25;;;;;;;28.69;39.81;100959.16;4986974;28;20049;-84
2023/06/17 10:24:15;;;;;;;13.95;12.15;;;;;;;29.19;39.64;101026.66;4982700;28;20516;-85
2023/06/17 10:26:41;;;;;;;15.40;12.95;;;;;;;28.37;37.99;100846.91;4989597;28;20456;-83
2023/06/17 10:29:10;;;;;;;13.82;12.32;;;;;;;29.09;38.46;100951.88;4979366;28;20057;-83
2023/06/17 10:31:42;;;;;;;16.98;12.25;;;;;;;29.32;37.69;100956.28;4965476;28;20049;-82
2023/06/17 10:34:25;;;;;;;15.25;13.45;;;;;;;28.79;38.25;100856.56;4986382;28;20363;-82
2023/06/17 10:37:04;;;;;;;15.15;12.82;;;;;;;29.53;38.46;100963.69;4991376;28;20060;-83
2023/06/17 10:39:34;;;;;;;16.35;13.57;;;;;;;29.66;37.53;100958.91;5029284;28;20057;-84
2023/06/17 10:42:04;;;;;;;17.20;12.95;;;;;;;29.42;37.95;100879.03;4997077;28;20360;-85
2023/06/17 10:44:40;;;;;;;19.88;13.02;;;;;;;29.86;37.69;100974.75;5002610;28;20050;-84
2023/06/17 10:47:22;;;;;;;16.70;13.57;;;;;;;29.97;36.58;100952.72;4967607;28;20045;-84
2023/06/17 10:49:51;;;;;;;17.60;12.55;;;;;;;29.58;35.09;100854.31;4987236;28;20417;-84
2023/06/17 10:52:33;;;;;;;17.60;12.95;;;;;;;30.46;34.66;100987.47;4997763;28;20049;-84
2023/06/17 10:55:09;;;;;;;15.32;13.73;;;;;;;30.31;35.60;100941.59;4968199;28;20053;-85
2023/06/17 10:57:46;;;;;;;16.85;12.90;;;;;;;31.08;34.20;101016.25;4975069;28;20177;-83
2023/06/17 11:00:12;;;;;;;15.65;11.55;;;;;;;30.94;34.83;100982.16;4988554;28;20495;-83
2023/06/17 11:02:40;;;;;;;14.68;12.52;;;;;;;31.35;33.94;101020.81;5009442;28;20067;-84
2023/06/17 11:05:16;;;;;;;12.88;11.48;;;;;;;30.20;34.09;100824.84;5009059;28;20059;-84
2023/06/17 11:07:43;;;;;;;16.10;11.43;;;;;;;31.27;33.91;100976.34;5002172;28;20128;-84
2023/06/17 11:10:10;;;;;;;16.48;12.05;;;;;;;31.61;34.50;101003.41;5009952;28;20319;-82
2023/06/17 11:12:39;;;;;;;12.77;11.48;;;;;;;30.77;33.92;100835.09;4999864;28;20059;-84
2023/06/17 11:15:07;;;;;;;14.90;12.70;;;;;;;31.76;33.91;100960.66;4990131;28;20056;-82
2023/06/17 11:17:36;;;;;;;14.45;12.70;;;;;;;31.98;33.32;100990.69;5005357;28;20110;-84
2023/06/17 11:20:07;;;;;;;19.35;12.80;;;;;;;32.15;32.39;100996.78;5026138;28;20053;-83
2023/06/17 11:22:43;;;;;;;15.23;12.02;;;;;;;32.09;33.10;100984.97;4989079;28;20543;-84
2023/06/17 11:25:18;;;;;;;16.75;12.75;;;;;;;32.31;32.59;101000.38;5011938;28;20100;-85